Time;durP1;ratioP1;P1;durP2;ratioP2;P2;SDS_P1;SDS_P2;PMS_P1;PMS_P2;Temp;Humidity;BMP_temperature;BMP_pressure;BME280_temperature;BME280_humidity;BME280_pressure;Samples;Min_cycle;Max_cycle;Signal;HPM_P1;HPM_P2
2021/09/15 00:00:50;;;;;;;;;5.00;5.00;;;;;;;;4982864;28;51103;-59
2021/09/15 00:03:16;;;;;;;;;6.00;6.00;;;;;;;;4981945;28;51190;-58
2021/09/15 00:05:41;;;;;;;;;6.00;6.00;;;;;;;;4983240;28;51116;-59
2021/09/15 00:08:06;;;;;;;;;5.00;5.00;;;;;;;;4983405;28;51055;-59
2021/09/15 00:10:31;;;;;;;;;7.00;7.00;;;;;;;;4983788;28;51123;-59
2021/09/15 00:12:56;;;;;;;;;5.00;5.00;;;;;;;;4982009;28;51201;-59
2021/09/15 00:15:22;;;;;;;;;7.00;7.00;;;;;;;;4983268;28;51423;-58
2021/09/15 00:17:47;;;;;;;;;8.00;6.00;;;;;;;;4982105;28;51992;-59
2021/09/15 00:20:12;;;;;;;;;7.67;6.00;;;;;;;;4985627;28;51945;-59
2021/09/15 00:22:37;;;;;;;;;7.00;7.00;;;;;;;;4986098;28;51099;-58
2021/09/15 00:25:03;;;;;;;;;7.00;7.00;;;;;;;;4985416;28;51025;-58
2021/09/15 00:27:28;;;;;;;;;6.00;6.00;;;;;;;;4985269;28;51232;-58
2021/09/15 00:29:53;;;;;;;;;5.67;5.67;;;;;;;;4987058;28;51227;-58
2021/09/15 00:32:19;;;;;;;;;5.67;5.67;;;;;;;;4983269;28;51025;-58
2021/09/15 00:34:44;;;;;;;;;8.00;7.00;;;;;;;;4986294;28;51285;-58
2021/09/15 00:37:09;;;;;;;;;6.00;6.00;;;;;;;;4988735;28;51651;-58
2021/09/15 00:39:34;;;;;;;;;6.33;6.00;;;;;;;;4986164;28;51867;-59
2021/09/15 00:41:59;;;;;;;;;6.33;5.67;;;;;;;;4986340;28;51003;-58
2021/09/15 00:44:25;;;;;;;;;6.00;6.00;;;;;;;;4985867;28;51212;-59
2021/09/15 00:46:51;;;;;;;;;5.67;5.67;;;;;;;;4985478;28;51766;-59
2021/09/15 00:49:16;;;;;;;;;7.33;7.33;;;;;;;;4991565;28;51376;-59
2021/09/15 00:51:42;;;;;;;;;6.00;5.33;;;;;;;;4987735;28;51053;-59
2021/09/15 00:54:08;;;;;;;;;8.00;7.00;;;;;;;;4977087;28;51217;-58
2021/09/15 00:56:34;;;;;;;;;8.33;7.00;;;;;;;;4994660;28;51012;-58
2021/09/15 00:59:00;;;;;;;;;8.67;7.67;;;;;;;;4995485;28;50997;-58
2021/09/15 01:01:25;;;;;;;;;7.00;6.33;;;;;;;;4995805;28;51199;-59
2021/09/15 01:03:50;;;;;;;;;5.33;5.33;;;;;;;;4994779;28;51137;-58
2021/09/15 01:06:16;;;;;;;;;6.67;6.67;;;;;;;;4990141;28;51862;-59
2021/09/15 01:08:41;;;;;;;;;5.00;5.00;;;;;;;;4995480;28;50989;-59
2021/09/15 01:11:07;;;;;;;;;5.33;5.33;;;;;;;;4995803;28;50969;-58
2021/09/15 01:13:33;;;;;;;;;4.33;4.33;;;;;;;;4994845;28;51069;-59
2021/09/15 01:15:58;;;;;;;;;5.67;5.33;;;;;;;;4994356;28;52391;-59
2021/09/15 01:18:24;;;;;;;;;5.33;5.33;;;;;;;;4994026;28;51115;-59
2021/09/15 01:20:49;;;;;;;;;6.00;6.00;;;;;;;;4990510;28;51156;-59
2021/09/15 01:23:14;;;;;;;;;5.00;5.00;;;;;;;;4996388;28;51389;-58
2021/09/15 01:25:39;;;;;;;;;6.33;6.33;;;;;;;;4994821;28;51753;-59
2021/09/15 01:28:05;;;;;;;;;6.00;6.00;;;;;;;;4994351;28;51102;-59
2021/09/15 01:30:30;;;;;;;;;4.33;4.33;;;;;;;;4993901;28;51244;-58
2021/09/15 01:32:55;;;;;;;;;7.33;7.33;;;;;;;;4994134;28;51172;-59
2021/09/15 01:35:21;;;;;;;;;7.67;7.67;;;;;;;;4995016;28;51138;-58
2021/09/15 01:37:46;;;;;;;;;6.33;6.33;;;;;;;;4994042;28;51052;-59
2021/09/15 01:40:12;;;;;;;;;12.33;9.00;;;;;;;;4995334;28;51037;-58
2021/09/15 01:42:38;;;;;;;;;8.00;7.67;;;;;;;;4977017;28;51249;-59
2021/09/15 01:45:08;;;;;;;;;8.00;8.00;;;;;;;;4993289;28;51175;-59
2021/09/15 01:47:33;;;;;;;;;8.00;7.00;;;;;;;;4994143;28;51155;-59
2021/09/15 01:49:58;;;;;;;;;8.33;8.33;;;;;;;;4993169;28;51134;-58
2021/09/15 01:52:23;;;;;;;;;8.00;8.00;;;;;;;;4995326;28;51145;-59
2021/09/15 01:54:49;;;;;;;;;10.00;10.00;;;;;;;;4984411;28;52794;-57
2021/09/15 01:57:14;;;;;;;;;9.33;9.00;;;;;;;;4994685;28;51001;-58
2021/09/15 01:59:40;;;;;;;;;7.00;7.00;;;;;;;;4993733;28;51965;-58
2021/09/15 02:02:05;;;;;;;;;7.00;7.00;;;;;;;;4995090;28;51243;-58
2021/09/15 02:04:30;;;;;;;;;10.00;9.00;;;;;;;;4974594;28;51940;-58
2021/09/15 02:06:56;;;;;;;;;6.00;5.67;;;;;;;;4994324;28;51083;-59
2021/09/15 02:09:21;;;;;;;;;7.33;7.00;;;;;;;;4974470;28;51271;-59
2021/09/15 02:11:47;;;;;;;;;8.00;8.00;;;;;;;;4993934;28;51408;-58
2021/09/15 02:14:12;;;;;;;;;5.00;5.00;;;;;;;;4992785;28;51238;-58
2021/09/15 02:16:38;;;;;;;;;9.00;8.67;;;;;;;;4993316;28;50995;-58
2021/09/15 02:19:03;;;;;;;;;9.00;8.33;;;;;;;;4992954;28;51520;-59
2021/09/15 02:21:28;;;;;;;;;7.00;7.00;;;;;;;;4994646;28;51321;-59
2021/09/15 02:23:54;;;;;;;;;6.67;6.33;;;;;;;;4993474;28;51098;-59
2021/09/15 02:26:19;;;;;;;;;5.67;5.67;;;;;;;;4993635;28;51048;-59
2021/09/15 02:28:44;;;;;;;;;8.00;8.00;;;;;;;;4993603;28;51067;-58
2021/09/15 02:31:09;;;;;;;;;8.00;7.67;;;;;;;;4993724;28;51124;-59
2021/09/15 02:33:35;;;;;;;;;8.00;8.00;;;;;;;;4992701;28;51925;-59
2021/09/15 02:36:00;;;;;;;;;8.33;8.33;;;;;;;;4994154;28;50963;-58
2021/09/15 02:38:26;;;;;;;;;8.00;7.67;;;;;;;;4993319;28;52527;-58
2021/09/15 02:40:51;;;;;;;;;7.00;6.67;;;;;;;;4994177;28;51095;-58
2021/09/15 02:43:16;;;;;;;;;8.00;8.00;;;;;;;;4992379;28;52028;-58
2021/09/15 02:45:42;;;;;;;;;6.00;5.67;;;;;;;;4993965;28;51136;-59
2021/09/15 02:48:07;;;;;;;;;7.00;7.00;;;;;;;;4990013;28;51149;-59
2021/09/15 02:50:32;;;;;;;;;6.00;6.00;;;;;;;;4984640;28;51754;-59
2021/09/15 02:52:58;;;;;;;;;8.33;8.33;;;;;;;;4992860;28;51494;-58
2021/09/15 02:55:23;;;;;;;;;7.00;7.00;;;;;;;;4989027;28;51067;-59
2021/09/15 02:57:49;;;;;;;;;8.67;8.00;;;;;;;;4994503;28;51280;-58
2021/09/15 03:00:14;;;;;;;;;7.00;6.33;;;;;;;;4994123;28;51135;-59
2021/09/15 03:02:39;;;;;;;;;8.00;8.00;;;;;;;;4992400;28;50870;-59
2021/09/15 03:05:05;;;;;;;;;9.00;7.00;;;;;;;;4992237;28;50890;-58
2021/09/15 03:07:30;;;;;;;;;9.00;8.00;;;;;;;;4975811;28;51036;-59
2021/09/15 03:09:55;;;;;;;;;7.00;7.00;;;;;;;;4994157;28;50896;-59
2021/09/15 03:12:21;;;;;;;;;8.00;8.00;;;;;;;;4992786;28;50956;-59
2021/09/15 03:14:46;;;;;;;;;6.67;6.00;;;;;;;;4993092;28;51364;-59
2021/09/15 03:17:11;;;;;;;;;7.33;7.33;;;;;;;;4993012;28;50924;-59
2021/09/15 03:19:36;;;;;;;;;7.33;7.33;;;;;;;;4993092;28;51021;-59
2021/09/15 03:22:02;;;;;;;;;7.00;7.00;;;;;;;;4992554;28;51838;-59
2021/09/15 03:24:27;;;;;;;;;7.00;6.33;;;;;;;;4992310;28;51002;-59
2021/09/15 03:26:52;;;;;;;;;6.33;6.33;;;;;;;;4993308;28;51065;-58
2021/09/15 03:29:17;;;;;;;;;7.67;7.67;;;;;;;;4993439;28;51319;-59
2021/09/15 03:31:43;;;;;;;;;8.33;8.00;;;;;;;;4993238;28;51664;-59
2021/09/15 03:34:08;;;;;;;;;9.00;8.67;;;;;;;;4992250;28;51456;-58
2021/09/15 03:36:34;;;;;;;;;10.33;9.33;;;;;;;;4993306;28;51238;-59
2021/09/15 03:38:59;;;;;;;;;9.33;9.33;;;;;;;;4992328;28;51137;-59
2021/09/15 03:41:24;;;;;;;;;9.00;9.00;;;;;;;;4992988;28;51081;-58
2021/09/15 03:43:51;;;;;;;;;10.67;10.00;;;;;;;;4992133;28;51114;-59
2021/09/15 03:46:16;;;;;;;;;10.00;9.33;;;;;;;;4992349;28;51058;-59
2021/09/15 03:48:41;;;;;;;;;10.00;9.00;;;;;;;;4988271;28;51127;-58
2021/09/15 03:51:07;;;;;;;;;10.67;9.67;;;;;;;;4992517;28;50972;-59
2021/09/15 03:53:32;;;;;;;;;9.67;8.33;;;;;;;;4991527;28;51026;-58
2021/09/15 03:55:57;;;;;;;;;10.33;9.67;;;;;;;;4991377;28;51044;-56
2021/09/15 03:58:23;;;;;;;;;11.00;11.00;;;;;;;;4993101;28;51025;-57
2021/09/15 04:00:48;;;;;;;;;11.33;9.67;;;;;;;;4992411;28;51127;-57
2021/09/15 04:03:13;;;;;;;;;10.00;8.67;;;;;;;;4991207;28;50910;-58
2021/09/15 04:05:38;;;;;;;;;9.33;9.33;;;;;;;;4991986;28;51154;-58
2021/09/15 04:08:04;;;;;;;;;10.33;9.33;;;;;;;;4992893;28;51184;-58
2021/09/15 04:10:29;;;;;;;;;8.00;8.00;;;;;;;;4994656;28;51150;-58
2021/09/15 04:12:54;;;;;;;;;10.33;10.00;;;;;;;;4974141;28;51143;-58
2021/09/15 04:15:19;;;;;;;;;10.00;9.00;;;;;;;;4992063;28;50942;-58
2021/09/15 04:17:45;;;;;;;;;9.00;9.00;;;;;;;;4992523;28;51357;-58
2021/09/15 04:20:11;;;;;;;;;10.00;9.00;;;;;;;;4992552;28;51116;-58
2021/09/15 04:22:38;;;;;;;;;10.67;10.67;;;;;;;;4974178;28;51077;-59
2021/09/15 04:33:15;;;;;;;;;11.33;10.67;;;;;;;;4991407;28;50910;-57
2021/09/15 04:35:40;;;;;;;;;10.67;10.00;;;;;;;;4992528;28;50859;-57
2021/09/15 04:38:06;;;;;;;;;10.67;9.00;;;;;;;;4973952;28;51221;-58
2021/09/15 04:40:31;;;;;;;;;11.00;9.33;;;;;;;;4978510;28;51807;-58
2021/09/15 04:42:56;;;;;;;;;9.00;9.00;;;;;;;;4991306;28;50994;-58
2021/09/15 04:45:21;;;;;;;;;9.67;9.67;;;;;;;;4992326;28;50877;-58
2021/09/15 04:47:47;;;;;;;;;11.00;10.00;;;;;;;;4992014;28;51241;-57
2021/09/15 04:50:12;;;;;;;;;8.67;8.67;;;;;;;;5004264;28;51874;-58
2021/09/15 04:52:37;;;;;;;;;11.67;11.00;;;;;;;;4992192;28;51142;-58
2021/09/15 04:55:02;;;;;;;;;10.67;9.00;;;;;;;;4990594;28;51258;-57
2021/09/15 04:57:27;;;;;;;;;10.00;10.00;;;;;;;;4972886;28;51357;-58
2021/09/15 04:59:53;;;;;;;;;12.00;11.33;;;;;;;;4991954;28;51608;-58
2021/09/15 05:02:18;;;;;;;;;13.33;12.00;;;;;;;;4990836;28;50989;-58
2021/09/15 05:04:43;;;;;;;;;9.00;8.67;;;;;;;;4989964;28;51185;-58
2021/09/15 05:07:10;;;;;;;;;11.00;10.67;;;;;;;;4977449;28;51068;-58
2021/09/15 05:09:35;;;;;;;;;11.67;11.00;;;;;;;;4994560;28;52919;-57
2021/09/15 05:12:00;;;;;;;;;11.67;10.67;;;;;;;;4995319;28;51060;-58
2021/09/15 05:14:25;;;;;;;;;11.00;11.00;;;;;;;;4994253;28;51132;-58
2021/09/15 05:16:50;;;;;;;;;11.33;11.00;;;;;;;;4993468;28;51053;-58
2021/09/15 05:19:16;;;;;;;;;12.67;11.67;;;;;;;;4993729;28;51187;-57
2021/09/15 05:21:41;;;;;;;;;11.00;11.00;;;;;;;;4994989;28;51169;-57
2021/09/15 05:24:06;;;;;;;;;12.00;12.00;;;;;;;;4992706;28;51192;-57
2021/09/15 05:26:31;;;;;;;;;12.00;11.33;;;;;;;;4994707;28;51103;-57
2021/09/15 05:28:56;;;;;;;;;10.00;10.00;;;;;;;;4975142;28;51131;-58
2021/09/15 05:31:22;;;;;;;;;12.33;12.33;;;;;;;;4994660;28;51050;-58
2021/09/15 05:33:48;;;;;;;;;12.00;12.00;;;;;;;;4994665;28;51066;-58
2021/09/15 05:36:13;;;;;;;;;10.67;10.00;;;;;;;;4993198;28;51288;-58
2021/09/15 05:38:38;;;;;;;;;12.00;11.00;;;;;;;;4994053;28;51224;-58
2021/09/15 05:41:04;;;;;;;;;12.67;10.00;;;;;;;;4994665;28;50890;-58
2021/09/15 05:43:29;;;;;;;;;10.33;9.00;;;;;;;;4995052;28;51082;-58
2021/09/15 05:45:54;;;;;;;;;10.33;10.00;;;;;;;;4994796;28;51264;-58
2021/09/15 05:48:19;;;;;;;;;9.00;9.00;;;;;;;;4990154;28;51888;-58
2021/09/15 05:50:44;;;;;;;;;8.67;8.67;;;;;;;;4990697;28;50882;-58
2021/09/15 05:53:10;;;;;;;;;14.67;11.67;;;;;;;;4994370;28;51062;-58
2021/09/15 05:55:35;;;;;;;;;13.00;13.00;;;;;;;;4994580;28;51032;-58
2021/09/15 05:58:00;;;;;;;;;12.67;11.33;;;;;;;;4994189;28;51869;-58
2021/09/15 06:00:25;;;;;;;;;9.00;9.00;;;;;;;;4994298;28;51160;-59
2021/09/15 06:02:51;;;;;;;;;12.67;12.67;;;;;;;;4993745;28;50940;-60
2021/09/15 06:05:16;;;;;;;;;12.00;11.00;;;;;;;;4993157;28;51161;-59
2021/09/15 06:07:41;;;;;;;;;13.67;12.00;;;;;;;;4975802;28;52146;-60
2021/09/15 06:10:06;;;;;;;;;10.33;10.33;;;;;;;;4993867;28;51007;-59
2021/09/15 06:12:31;;;;;;;;;14.00;12.33;;;;;;;;4993807;28;51175;-60
2021/09/15 06:14:57;;;;;;;;;11.67;10.67;;;;;;;;4993823;28;51136;-58
2021/09/15 06:17:22;;;;;;;;;13.33;13.33;;;;;;;;4992466;28;50971;-57
2021/09/15 06:19:47;;;;;;;;;13.67;10.67;;;;;;;;4993564;28;50993;-60
2021/09/15 06:22:13;;;;;;;;;11.67;11.67;;;;;;;;4993595;28;50760;-60
2021/09/15 06:24:38;;;;;;;;;15.33;15.33;;;;;;;;4990549;28;51029;-60
2021/09/15 06:27:03;;;;;;;;;14.33;12.67;;;;;;;;4989513;28;50996;-60
2021/09/15 06:29:28;;;;;;;;;12.33;11.67;;;;;;;;4975677;28;51141;-60
2021/09/15 06:31:53;;;;;;;;;13.67;13.67;;;;;;;;4992931;28;50997;-60
2021/09/15 06:34:19;;;;;;;;;14.67;13.00;;;;;;;;4993154;28;51063;-60
2021/09/15 06:36:44;;;;;;;;;19.67;17.00;;;;;;;;4992815;28;51337;-60
2021/09/15 06:39:09;;;;;;;;;16.67;15.67;;;;;;;;4993248;28;51027;-60
2021/09/15 06:41:35;;;;;;;;;17.00;16.67;;;;;;;;4992802;28;51041;-60
2021/09/15 06:44:00;;;;;;;;;15.00;14.67;;;;;;;;4993045;28;51123;-60
2021/09/15 06:46:25;;;;;;;;;16.67;15.00;;;;;;;;4992273;28;50965;-58
2021/09/15 06:48:51;;;;;;;;;16.00;15.33;;;;;;;;4992875;28;51767;-60
2021/09/15 06:51:16;;;;;;;;;19.67;19.33;;;;;;;;4993063;28;51545;-59
2021/09/15 06:53:42;;;;;;;;;24.00;21.50;;;;;;;;4992578;28;51219;-60
2021/09/15 06:56:07;;;;;;;;;27.75;27.75;;;;;;;;4993099;28;52842;-60
2021/09/15 06:58:32;;;;;;;;;20.33;19.00;;;;;;;;4993217;28;51086;-59
2021/09/15 07:00:57;;;;;;;;;17.00;16.33;;;;;;;;4992865;28;51068;-59
2021/09/15 07:03:23;;;;;;;;;18.33;18.33;;;;;;;;4975280;28;51269;-59
2021/09/15 07:05:48;;;;;;;;;16.00;16.00;;;;;;;;4992652;28;51579;-59
2021/09/15 07:08:13;;;;;;;;;18.67;18.00;;;;;;;;4992903;28;51197;-60
2021/09/15 07:10:40;;;;;;;;;18.67;17.00;;;;;;;;4992929;28;50907;-60
2021/09/15 07:13:05;;;;;;;;;14.00;14.00;;;;;;;;4992805;28;51215;-60
2021/09/15 07:15:30;;;;;;;;;17.67;15.67;;;;;;;;4992046;28;52793;-60
2021/09/15 07:17:56;;;;;;;;;19.00;17.33;;;;;;;;4992200;28;50966;-61
2021/09/15 07:20:21;;;;;;;;;16.00;16.00;;;;;;;;4992065;28;51226;-61
2021/09/15 07:22:46;;;;;;;;;17.00;14.00;;;;;;;;4992849;28;51333;-60
2021/09/15 07:25:12;;;;;;;;;18.67;16.33;;;;;;;;4992233;28;51812;-60
2021/09/15 07:27:38;;;;;;;;;17.33;17.33;;;;;;;;4992021;28;50949;-59
2021/09/15 07:30:04;;;;;;;;;20.00;16.67;;;;;;;;4992092;28;51348;-58
2021/09/15 07:32:29;;;;;;;;;16.00;15.33;;;;;;;;4989804;28;51052;-58
2021/09/15 07:34:54;;;;;;;;;24.00;21.00;;;;;;;;4990353;28;51924;-59
2021/09/15 07:37:20;;;;;;;;;20.00;17.67;;;;;;;;4990777;28;51088;-59
2021/09/15 07:39:45;;;;;;;;;17.67;17.67;;;;;;;;4992528;28;51092;-59
2021/09/15 07:42:10;;;;;;;;;17.67;15.67;;;;;;;;4992528;28;51085;-59
2021/09/15 07:44:35;;;;;;;;;22.33;21.33;;;;;;;;4992442;28;51983;-59
2021/09/15 07:47:01;;;;;;;;;16.67;16.33;;;;;;;;4992385;28;51019;-59
2021/09/15 07:49:26;;;;;;;;;17.67;16.67;;;;;;;;4992037;28;51199;-58
2021/09/15 07:51:52;;;;;;;;;17.00;15.33;;;;;;;;4993004;28;51021;-59
2021/09/15 07:54:17;;;;;;;;;19.33;17.67;;;;;;;;4992641;28;50946;-57
2021/09/15 07:56:42;;;;;;;;;20.00;19.33;;;;;;;;4992147;28;51038;-58
2021/09/15 07:59:07;;;;;;;;;12.33;12.33;;;;;;;;4991818;28;51269;-56
2021/09/15 08:01:32;;;;;;;;;15.33;15.00;;;;;;;;4992380;28;51151;-56
2021/09/15 08:03:58;;;;;;;;;14.00;13.33;;;;;;;;4991371;28;51075;-57
2021/09/15 08:06:23;;;;;;;;;16.33;16.33;;;;;;;;4988389;28;51282;-56
2021/09/15 08:08:48;;;;;;;;;15.00;14.00;;;;;;;;4991750;28;51263;-57
2021/09/15 08:11:14;;;;;;;;;11.67;11.33;;;;;;;;4992571;28;51251;-57
2021/09/15 08:13:39;;;;;;;;;10.67;10.67;;;;;;;;4992273;28;50979;-57
2021/09/15 08:16:05;;;;;;;;;9.33;9.33;;;;;;;;4992494;28;51082;-58
2021/09/15 08:18:30;;;;;;;;;14.00;13.00;;;;;;;;4991924;28;51097;-57
2021/09/15 08:20:55;;;;;;;;;12.67;11.67;;;;;;;;4992632;28;50851;-59
2021/09/15 08:23:21;;;;;;;;;13.00;12.00;;;;;;;;4992156;28;51701;-58
2021/09/15 08:25:47;;;;;;;;;18.67;16.33;;;;;;;;4991369;28;51053;-58
2021/09/15 08:28:12;;;;;;;;;10.67;10.00;;;;;;;;4991884;28;50988;-57
2021/09/15 08:30:37;;;;;;;;;10.00;9.33;;;;;;;;4991131;28;51027;-57
2021/09/15 08:33:03;;;;;;;;;11.67;11.00;;;;;;;;4991736;28;51247;-57
2021/09/15 08:35:28;;;;;;;;;10.33;9.00;;;;;;;;4992069;28;51120;-56
2021/09/15 08:37:53;;;;;;;;;10.67;7.67;;;;;;;;4991525;28;50968;-58
2021/09/15 08:40:19;;;;;;;;;7.33;7.33;;;;;;;;4976521;28;50996;-57
2021/09/15 08:42:44;;;;;;;;;9.33;9.00;;;;;;;;4994935;28;51714;-57
2021/09/15 08:45:10;;;;;;;;;11.33;10.33;;;;;;;;4995140;28;51083;-56
2021/09/15 08:47:37;;;;;;;;;9.33;8.00;;;;;;;;4994900;28;51188;-57
2021/09/15 08:50:04;;;;;;;;;9.00;8.33;;;;;;;;4994867;28;51027;-57
2021/09/15 08:52:29;;;;;;;;;10.00;9.67;;;;;;;;4993595;28;51952;-57
2021/09/15 08:54:54;;;;;;;;;11.67;11.00;;;;;;;;4995368;28;50933;-59
2021/09/15 08:57:20;;;;;;;;;10.33;10.00;;;;;;;;4994446;28;51146;-58
2021/09/15 08:59:45;;;;;;;;;8.00;7.67;;;;;;;;4995855;28;51037;-56
2021/09/15 09:02:12;;;;;;;;;12.00;11.33;;;;;;;;4994723;28;52036;-57
2021/09/15 09:05:00;;;;;;;;;8.67;6.33;;;;;;;;4995404;28;51114;-56
2021/09/15 09:07:27;;;;;;;;;15.33;15.33;;;;;;;;4995073;28;50974;-56
2021/09/15 09:09:53;;;;;;;;;14.00;13.33;;;;;;;;4995506;28;51352;-57
2021/09/15 09:12:21;;;;;;;;;22.00;21.50;;;;;;;;4994803;28;52294;-58
2021/09/15 09:14:46;;;;;;;;;14.00;12.33;;;;;;;;4994408;28;51296;-57
2021/09/15 09:17:30;;;;;;;;;10.00;9.00;;;;;;;;4994227;28;50867;-59
2021/09/15 09:20:11;;;;;;;;;9.00;8.00;;;;;;;;4994846;28;50840;-58
2021/09/15 09:22:54;;;;;;;;;7.00;7.00;;;;;;;;4994436;28;52511;-57
2021/09/15 09:25:19;;;;;;;;;10.33;8.67;;;;;;;;4994981;28;50972;-57
2021/09/15 09:27:45;;;;;;;;;7.00;7.00;;;;;;;;4994549;28;51129;-56
2021/09/15 09:30:29;;;;;;;;;8.33;8.00;;;;;;;;4995095;28;51447;-57
2021/09/15 09:32:54;;;;;;;;;11.00;11.00;;;;;;;;4994052;28;52083;-58
2021/09/15 09:35:19;;;;;;;;;16.00;13.00;;;;;;;;4994648;28;51056;-58
2021/09/15 09:37:44;;;;;;;;;12.33;12.00;;;;;;;;4977465;28;50981;-57
2021/09/15 09:40:10;;;;;;;;;10.00;9.00;;;;;;;;4995120;28;51192;-58
2021/09/15 09:42:38;;;;;;;;;8.00;8.00;;;;;;;;4994543;28;51876;-57
2021/09/15 09:45:06;;;;;;;;;8.00;7.67;;;;;;;;4977069;28;51048;-58
2021/09/15 09:47:32;;;;;;;;;10.33;10.33;;;;;;;;4994693;28;51069;-57
2021/09/15 09:50:03;;;;;;;;;9.00;8.00;;;;;;;;4994685;28;51143;-57
2021/09/15 09:52:29;;;;;;;;;6.67;6.00;;;;;;;;4993362;28;52218;-57
2021/09/15 09:54:58;;;;;;;;;6.00;5.00;;;;;;;;4993895;28;51355;-58
2021/09/15 09:57:24;;;;;;;;;7.00;6.00;;;;;;;;4994512;28;51100;-57
2021/09/15 09:59:49;;;;;;;;;5.00;4.67;;;;;;;;4994399;28;51426;-58
2021/09/15 10:02:14;;;;;;;;;7.00;7.00;;;;;;;;4993944;28;51199;-57
2021/09/15 10:04:41;;;;;;;;;11.00;11.00;;;;;;;;4994396;28;51008;-56
2021/09/15 10:07:06;;;;;;;;;10.00;8.00;;;;;;;;4994627;28;51012;-58
2021/09/15 10:09:32;;;;;;;;;7.33;6.00;;;;;;;;4994746;28;51293;-57
2021/09/15 10:11:58;;;;;;;;;6.00;5.00;;;;;;;;4993915;28;51854;-58
2021/09/15 10:14:25;;;;;;;;;8.00;6.33;;;;;;;;4993457;28;51016;-58
2021/09/15 10:17:11;;;;;;;;;6.67;6.67;;;;;;;;4993392;28;50989;-58
2021/09/15 10:19:39;;;;;;;;;9.33;9.33;;;;;;;;4993565;28;50937;-60
2021/09/15 10:22:05;;;;;;;;;12.33;12.00;;;;;;;;4993427;28;51913;-59
2021/09/15 10:24:48;;;;;;;;;50.25;40.75;;;;;;;;4975840;28;51340;-59
2021/09/15 10:27:18;;;;;;;;;8.00;7.00;;;;;;;;4993641;28;51139;-58
2021/09/15 10:29:59;;;;;;;;;9.00;9.00;;;;;;;;4994165;28;51008;-58
2021/09/15 10:32:30;;;;;;;;;12.67;12.67;;;;;;;;4993125;28;52048;-57
2021/09/15 10:34:56;;;;;;;;;13.67;13.33;;;;;;;;4993777;28;50889;-57
2021/09/15 10:37:21;;;;;;;;;15.33;14.00;;;;;;;;4993597;28;50980;-58
2021/09/15 10:39:55;;;;;;;;;21.75;21.75;;;;;;;;4993433;28;51070;-58
2021/09/15 10:42:38;;;;;;;;;19.33;19.33;;;;;;;;4993166;28;52716;-58
2021/09/15 10:45:19;;;;;;;;;18.67;17.33;;;;;;;;4993216;28;51007;-57
2021/09/15 10:47:45;;;;;;;;;20.33;19.00;;;;;;;;4993180;28;51053;-57
2021/09/15 10:50:31;;;;;;;;;22.75;21.75;;;;;;;;4993473;28;50996;-57
2021/09/15 10:53:08;;;;;;;;;20.00;18.33;;;;;;;;4993092;28;51744;-58
2021/09/15 10:55:37;;;;;;;;;32.25;30.50;;;;;;;;4993364;28;51020;-59
2021/09/15 10:58:10;;;;;;;;;24.75;24.50;;;;;;;;4992608;28;50843;-58
2021/09/15 11:00:46;;;;;;;;;27.50;25.50;;;;;;;;4993035;28;50804;-59
2021/09/15 11:03:41;;;;;;;;;19.00;18.00;;;;;;;;4991809;28;51879;-59
2021/09/15 11:06:07;;;;;;;;;20.33;18.00;;;;;;;;4962605;28;51116;-58
2021/09/15 11:08:51;;;;;;;;;14.67;14.67;;;;;;;;4975201;28;51148;-57
2021/09/15 11:11:19;;;;;;;;;13.67;13.33;;;;;;;;4993251;28;51046;-58
2021/09/15 11:13:45;;;;;;;;;21.25;20.25;;;;;;;;4992452;28;51052;-58
2021/09/15 11:16:26;;;;;;;;;20.33;19.67;;;;;;;;4991860;28;50960;-58
2021/09/15 11:19:14;;;;;;;;;17.00;16.00;;;;;;;;4985855;28;51280;-58
2021/09/15 11:21:40;;;;;;;;;16.00;15.33;;;;;;;;4976222;28;51230;-58
2021/09/15 11:24:11;;;;;;;;;15.67;15.67;;;;;;;;4992592;28;51797;-58
2021/09/15 11:26:39;;;;;;;;;14.67;14.67;;;;;;;;4992579;28;51017;-58
2021/09/15 11:29:04;;;;;;;;;17.33;17.33;;;;;;;;4992589;28;51232;-58
2021/09/15 11:31:36;;;;;;;;;15.33;14.67;;;;;;;;4992310;28;51100;-58
2021/09/15 11:34:03;;;;;;;;;17.33;16.00;;;;;;;;4991784;28;51772;-58
2021/09/15 11:36:28;;;;;;;;;15.67;15.33;;;;;;;;4992639;28;50900;-58
2021/09/15 11:38:53;;;;;;;;;13.67;12.67;;;;;;;;4992338;28;51076;-58
2021/09/15 11:41:19;;;;;;;;;14.00;13.33;;;;;;;;4992977;28;51163;-58
2021/09/15 11:43:46;;;;;;;;;16.67;14.33;;;;;;;;4992790;28;51532;-58
2021/09/15 11:46:12;;;;;;;;;15.00;14.00;;;;;;;;4992434;28;51091;-58
2021/09/15 11:48:38;;;;;;;;;30.00;28.00;;;;;;;;4991944;28;50940;-58
2021/09/15 11:51:17;;;;;;;;;14.00;13.00;;;;;;;;4993130;28;51355;-58
2021/09/15 11:53:51;;;;;;;;;15.00;14.67;;;;;;;;4991677;28;50963;-58
2021/09/15 11:56:20;;;;;;;;;13.00;13.00;;;;;;;;4992275;28;50958;-58
2021/09/15 11:58:46;;;;;;;;;18.00;17.33;;;;;;;;4992146;28;51038;-58
2021/09/15 12:01:16;;;;;;;;;15.67;15.00;;;;;;;;4975242;28;51235;-58
2021/09/15 12:03:41;;;;;;;;;15.67;15.33;;;;;;;;4992148;28;51827;-58
2021/09/15 12:06:08;;;;;;;;;13.33;13.00;;;;;;;;4992312;28;50965;-58
2021/09/15 12:08:34;;;;;;;;;12.67;12.00;;;;;;;;4992540;28;50902;-58
2021/09/15 12:10:59;;;;;;;;;13.67;13.67;;;;;;;;4992751;28;51344;-59
2021/09/15 12:13:31;;;;;;;;;13.00;13.00;;;;;;;;4992542;28;52364;-59
2021/09/15 12:15:57;;;;;;;;;11.00;11.00;;;;;;;;4991642;28;50874;-59
2021/09/15 12:18:43;;;;;;;;;12.33;12.00;;;;;;;;4991611;28;51174;-58
2021/09/15 12:21:15;;;;;;;;;11.00;11.00;;;;;;;;4991569;28;51528;-58
2021/09/15 12:23:41;;;;;;;;;10.67;10.67;;;;;;;;4973906;28;51850;-59
2021/09/15 12:26:06;;;;;;;;;11.00;11.00;;;;;;;;4991676;28;50989;-58
2021/09/15 12:28:32;;;;;;;;;11.00;11.00;;;;;;;;4974188;28;51037;-60
2021/09/15 12:30:59;;;;;;;;;12.67;12.33;;;;;;;;4991945;28;51223;-59
2021/09/15 12:33:25;;;;;;;;;14.00;13.00;;;;;;;;4988136;28;52777;-59
2021/09/15 12:36:09;;;;;;;;;13.33;13.33;;;;;;;;4991393;28;51182;-59
2021/09/15 12:39:04;;;;;;;;;16.33;15.67;;;;;;;;4989783;28;51028;-59
2021/09/15 12:41:31;;;;;;;;;18.00;18.00;;;;;;;;4981280;28;51161;-59
2021/09/15 12:44:10;;;;;;;;;17.33;17.33;;;;;;;;4989388;28;51613;-60
2021/09/15 12:46:35;;;;;;;;;16.00;15.33;;;;;;;;4990583;28;50946;-61
2021/09/15 12:49:01;;;;;;;;;23.33;20.33;;;;;;;;4989611;28;50894;-60
2021/09/15 12:51:27;;;;;;;;;20.67;19.33;;;;;;;;4989697;28;51130;-60
2021/09/15 12:53:54;;;;;;;;;19.00;18.33;;;;;;;;4990496;28;51984;-60
2021/09/15 12:56:23;;;;;;;;;31.50;30.50;;;;;;;;4991081;28;51005;-60
2021/09/15 12:58:49;;;;;;;;;17.00;17.00;;;;;;;;4991301;28;51104;-60
2021/09/15 13:01:21;;;;;;;;;18.75;18.75;;;;;;;;4991846;28;50966;-60
2021/09/15 13:03:49;;;;;;;;;21.00;19.33;;;;;;;;4990290;28;51922;-59
2021/09/15 13:06:18;;;;;;;;;15.67;15.33;;;;;;;;4972502;28;51157;-59
2021/09/15 13:08:50;;;;;;;;;21.00;21.00;;;;;;;;4973264;28;51137;-59
2021/09/15 13:11:16;;;;;;;;;21.00;20.50;;;;;;;;4990367;28;51298;-60
2021/09/15 13:13:41;;;;;;;;;23.33;22.33;;;;;;;;4964179;28;53998;-59
2021/09/15 13:16:06;;;;;;;;;23.75;22.00;;;;;;;;4991208;28;51028;-60
2021/09/15 13:18:31;;;;;;;;;23.00;22.33;;;;;;;;4991223;28;51025;-60
2021/09/15 13:20:57;;;;;;;;;27.00;25.33;;;;;;;;4991750;28;51317;-59
2021/09/15 13:23:22;;;;;;;;;30.00;28.75;;;;;;;;4991332;28;51859;-59
2021/09/15 13:25:47;;;;;;;;;28.25;27.25;;;;;;;;4990929;28;51040;-59
2021/09/15 13:28:13;;;;;;;;;26.75;26.50;;;;;;;;4994762;28;50976;-59
2021/09/15 13:30:38;;;;;;;;;31.75;30.00;;;;;;;;4994885;28;50840;-59
2021/09/15 13:33:04;;;;;;;;;32.25;30.25;;;;;;;;4993501;28;51548;-58
2021/09/15 13:35:29;;;;;;;;;36.75;33.50;;;;;;;;4994539;28;51110;-59
2021/09/15 13:37:54;;;;;;;;;33.75;31.75;;;;;;;;4994583;28;50938;-59
2021/09/15 13:40:20;;;;;;;;;36.75;33.75;;;;;;;;4995350;28;51038;-58
2021/09/15 13:42:46;;;;;;;;;37.75;33.25;;;;;;;;4976056;28;54119;-59
2021/09/15 13:45:13;;;;;;;;;41.25;35.75;;;;;;;;4994675;28;50945;-59
2021/09/15 13:47:43;;;;;;;;;38.50;34.00;;;;;;;;4976160;28;51122;-59
2021/09/15 13:50:08;;;;;;;;;44.50;37.00;;;;;;;;4994464;28;51064;-59
2021/09/15 13:52:34;;;;;;;;;47.75;39.25;;;;;;;;4993546;28;52407;-59
2021/09/15 13:54:59;;;;;;;;;47.25;39.00;;;;;;;;4994163;28;51067;-60
2021/09/15 13:57:25;;;;;;;;;46.75;38.00;;;;;;;;4994582;28;51061;-60
2021/09/15 13:59:50;;;;;;;;;44.00;37.75;;;;;;;;4994583;28;51288;-59
2021/09/15 14:02:16;;;;;;;;;44.25;37.00;;;;;;;;4993232;28;51720;-60
2021/09/15 14:04:41;;;;;;;;;46.00;37.50;;;;;;;;4993902;28;50928;-60
2021/09/15 14:07:06;;;;;;;;;45.00;36.25;;;;;;;;4994029;28;50934;-60
2021/09/15 14:09:32;;;;;;;;;45.50;37.00;;;;;;;;4976456;28;50965;-59
2021/09/15 14:11:57;;;;;;;;;38.00;32.75;;;;;;;;4993190;28;51917;-61
2021/09/15 14:14:22;;;;;;;;;37.25;33.25;;;;;;;;4994065;28;51013;-60
2021/09/15 14:16:48;;;;;;;;;35.25;32.75;;;;;;;;4993492;28;51628;-60
2021/09/15 14:19:13;;;;;;;;;34.25;32.25;;;;;;;;4994209;28;51061;-60
2021/09/15 14:21:39;;;;;;;;;35.25;32.00;;;;;;;;4993545;28;50956;-61
2021/09/15 14:24:07;;;;;;;;;40.50;35.00;;;;;;;;4993566;28;50823;-60
2021/09/15 14:26:32;;;;;;;;;38.50;34.50;;;;;;;;4993619;28;51142;-61
2021/09/15 14:28:58;;;;;;;;;37.00;32.00;;;;;;;;4993663;28;51299;-61
2021/09/15 14:31:23;;;;;;;;;37.00;32.75;;;;;;;;4992950;28;51659;-61